createdAt,value
2022-09-05T00:04:40.302Z,56.97
2022-09-05T00:15:17.686Z,58.08
2022-09-05T00:25:31.722Z,58.84
2022-09-05T00:35:52.035Z,76.39
2022-09-05T00:45:59.849Z,70.34
2022-09-05T00:56:06.495Z,53.76
2022-09-05T01:06:15.814Z,50.50
2022-09-05T01:16:29.661Z,50.76
2022-09-05T01:26:31.627Z,52.23
2022-09-05T01:36:33.423Z,53.75
2022-09-05T01:46:54.057Z,55.95
2022-09-05T01:56:56.888Z,57.87
2022-09-05T02:07:30.453Z,75.61
2022-09-05T02:17:51.008Z,71.11
2022-09-05T02:28:05.746Z,52.32
2022-09-05T02:41:32.056Z,50.50
2022-09-05T02:48:52.855Z,52.65
2022-09-05T02:59:13.493Z,55.39
2022-09-05T03:09:33.951Z,71.45
2022-09-05T03:19:54.637Z,67.99
2022-09-05T03:30:02.820Z,52.60
2022-09-05T03:40:23.571Z,50.82
2022-09-05T03:56:16.090Z,53.19
2022-09-05T04:02:22.390Z,55.64
2022-09-05T04:11:25.334Z,72.29
2022-09-05T04:21:29.870Z,67.55
2022-09-05T04:31:56.288Z,53.16
2022-09-05T04:42:22.036Z,51.42
2022-09-05T04:52:43.771Z,54.50
2022-09-05T05:06:01.778Z,70.52
2022-09-05T05:17:57.239Z,65.40
2022-09-05T05:23:32.012Z,49.74
2022-09-05T05:33:37.775Z,48.52
2022-09-05T05:43:46.076Z,50.84
2022-09-05T05:54:00.927Z,52.88
2022-09-05T06:04:08.823Z,54.04
2022-09-05T06:14:57.484Z,55.30
2022-09-05T06:25:16.368Z,55.33
2022-09-05T06:35:31.450Z,55.32
2022-09-05T06:45:36.352Z,54.55
2022-09-05T06:55:41.269Z,47.70
2022-09-05T07:06:03.875Z,37.19
2022-09-05T07:16:12.811Z,30.52
2022-09-05T07:26:47.966Z,25.39
2022-09-05T07:36:38.572Z,20.41
2022-09-05T07:46:41.478Z,19.04
2022-09-05T07:56:49.429Z,16.01
2022-09-05T08:07:47.271Z,14.79
2022-09-05T08:17:26.470Z,14.07
2022-09-05T08:27:40.591Z,13.63
2022-09-05T08:37:43.575Z,12.48
2022-09-05T08:47:54.760Z,12.82
2022-09-05T08:58:02.974Z,11.53
2022-09-05T09:08:17.586Z,10.84
2022-09-05T09:18:21.578Z,10.73
2022-09-05T09:28:50.297Z,10.16
2022-09-05T09:39:38.784Z,10.47
2022-09-05T09:49:56.619Z,9.90
2022-09-05T10:00:13.642Z,9.51
2022-09-05T10:10:47.493Z,9.73
2022-09-05T10:21:15.481Z,10.01
2022-09-05T10:34:16.067Z,10.76
2022-09-05T10:41:46.426Z,11.43
2022-09-05T10:52:18.578Z,13.78
2022-09-05T11:02:33.643Z,15.35
2022-09-05T11:12:36.987Z,20.79
2022-09-05T11:22:40.783Z,23.12
2022-09-05T11:39:23.956Z,22.79
2022-09-05T11:43:43.877Z,23.99
2022-09-05T11:53:48.656Z,24.79
2022-09-05T12:04:00.002Z,27.79
2022-09-05T12:14:13.786Z,29.18
2022-09-05T12:25:24.169Z,26.41
2022-09-05T12:36:09.836Z,27.13
2022-09-05T12:45:44.137Z,27.83
2022-09-05T12:56:15.834Z,28.43
2022-09-05T13:06:25.076Z,28.89
2022-09-05T13:16:29.498Z,29.38
2022-09-05T13:26:37.638Z,30.58
2022-09-05T13:38:02.435Z,30.29
2022-09-05T13:47:28.909Z,30.95
2022-09-05T13:57:34.722Z,31.17
2022-09-05T14:07:55.189Z,31.36
2022-09-05T14:18:28.358Z,31.62
2022-09-05T14:28:33.365Z,31.20
2022-09-05T14:38:38.858Z,32.97
2022-09-05T14:49:08.830Z,31.66
2022-09-05T15:02:54.608Z,31.65
2022-09-05T15:12:17.411Z,31.47
2022-09-05T15:20:08.304Z,31.89
2022-09-05T15:30:16.381Z,31.68
2022-09-05T15:40:23.049Z,33.08
2022-09-05T15:50:27.869Z,32.93
2022-09-05T16:00:39.214Z,34.06
2022-09-05T16:23:37.412Z,34.80
2022-09-05T16:31:40.204Z,35.69
2022-09-05T16:41:42.011Z,36.55
2022-09-05T16:51:50.253Z,39.26
2022-09-05T17:02:33.343Z,42.28
2022-09-05T17:12:40.555Z,44.47
2022-09-05T17:26:48.890Z,47.00
2022-09-05T17:33:45.074Z,48.05
2022-09-05T17:44:22.357Z,50.12
2022-09-05T17:54:32.011Z,51.93
2022-09-05T18:04:49.091Z,53.45
2022-09-05T18:15:02.035Z,54.51
2022-09-05T18:25:27.757Z,56.05
2022-09-05T18:35:36.816Z,71.94
2022-09-05T18:45:52.532Z,66.76
2022-09-05T18:56:13.055Z,50.40
2022-09-05T19:06:34.723Z,48.83
2022-09-05T19:16:47.742Z,50.91
2022-09-05T19:26:53.622Z,53.25
2022-09-05T19:37:27.454Z,54.92
2022-09-05T19:58:20.267Z,66.96
2022-09-05T20:08:30.293Z,49.80
2022-09-05T20:18:42.628Z,47.51
2022-09-05T20:28:45.765Z,49.05
2022-09-05T20:43:23.017Z,50.28
2022-09-05T20:54:28.817Z,51.66
2022-09-05T20:59:38.542Z,54.01
2022-09-05T21:10:09.797Z,54.90
2022-09-05T21:20:16.218Z,55.87
2022-09-05T21:30:22.129Z,73.03
2022-09-05T21:40:28.473Z,68.36
2022-09-05T21:50:34.157Z,50.98
2022-09-05T22:00:36.307Z,48.31
2022-09-05T22:10:49.252Z,49.28
2022-09-05T22:21:33.727Z,52.02
2022-09-05T22:31:17.374Z,53.53
2022-09-05T22:41:29.986Z,55.51
2022-09-05T22:51:31.880Z,74.51
2022-09-05T23:01:33.826Z,66.06
2022-09-05T23:11:36.088Z,49.80
2022-09-05T23:21:37.850Z,48.97
2022-09-05T23:31:40.135Z,51.36
2022-09-05T23:41:41.830Z,53.61
2022-09-05T23:51:43.566Z,55.92
